createdAt,value
2018-07-01T00:00:28.971Z,60.4
2018-07-01T00:05:26.979Z,60.3
2018-07-01T00:10:24.968Z,60.4
2018-07-01T00:15:23.404Z,60.5
2018-07-01T00:20:21.463Z,60.6
2018-07-01T00:25:19.981Z,60.9
2018-07-01T00:30:17.957Z,61
2018-07-01T00:35:16.482Z,61.1
2018-07-01T00:40:14.816Z,61.3
2018-07-01T00:45:12.994Z,61.5
2018-07-01T00:50:11.009Z,61.7
2018-07-01T00:55:09.321Z,61.8
2018-07-01T01:00:07.460Z,62
2018-07-01T01:05:07.798Z,61.8
2018-07-01T01:10:05.938Z,61.7
2018-07-01T01:15:03.853Z,61.5
2018-07-01T01:20:01.787Z,61.5
2018-07-01T01:25:00.552Z,61.3
2018-07-01T01:29:58.973Z,61.3
2018-07-01T01:34:57.609Z,61.3
2018-07-01T01:39:55.329Z,61.4
2018-07-01T01:44:53.172Z,61.5
2018-07-01T01:49:51.649Z,61.6
2018-07-01T01:54:49.046Z,61.7
2018-07-01T01:59:47.507Z,61.9
2018-07-01T02:04:45.801Z,62
2018-07-01T02:09:43.511Z,61.5
2018-07-01T02:14:41.721Z,61.4
2018-07-01T02:19:39.781Z,61.2
2018-07-01T02:24:37.783Z,61.2
2018-07-01T02:29:36.325Z,60.8
2018-07-01T02:34:34.140Z,60.7
2018-07-01T02:39:33.002Z,60.5
2018-07-01T02:44:30.857Z,59.5
2018-07-01T02:49:29.726Z,57.5
2018-07-01T02:54:28.447Z,55.3
2018-07-01T02:59:25.952Z,52.4
2018-07-01T03:04:24.627Z,52
2018-07-01T03:09:22.850Z,51
2018-07-01T03:14:21.683Z,49.3
2018-07-01T03:19:19.954Z,49.2
2018-07-01T03:24:18.325Z,49.1
2018-07-01T03:29:16.523Z,47.5
2018-07-01T03:34:14.919Z,47.2
2018-07-01T03:39:12.705Z,47.6
2018-07-01T03:44:10.487Z,47.3
2018-07-01T03:49:08.780Z,47.1
2018-07-01T03:54:07.936Z,46.9
2018-07-01T03:59:05.860Z,47.2
2018-07-01T04:04:04.196Z,48
2018-07-01T04:09:02.300Z,47.6
2018-07-01T04:14:00.741Z,47.9
2018-07-01T04:18:58.892Z,48
2018-07-01T04:23:57.288Z,47.5
2018-07-01T04:28:56.043Z,47.9
2018-07-01T04:33:54.382Z,48.2
2018-07-01T04:38:52.256Z,48
2018-07-01T04:43:50.541Z,47.4
2018-07-01T04:48:48.758Z,47.5
2018-07-01T04:53:47.642Z,47.7
2018-07-01T04:58:45.627Z,47.8
2018-07-01T05:03:43.236Z,48.1
2018-07-01T05:08:41.379Z,48.4
2018-07-01T05:13:39.584Z,48.1
2018-07-01T05:18:37.859Z,48.2
2018-07-01T05:23:36.049Z,48.2
2018-07-01T05:28:34.427Z,48.4
2018-07-01T05:33:32.570Z,48.6
2018-07-01T05:38:30.756Z,48.8
2018-07-01T05:43:29.161Z,48.9
2018-07-01T05:48:27.476Z,48.5
2018-07-01T05:53:25.932Z,47
2018-07-01T05:58:23.742Z,46.6
2018-07-01T06:03:22.215Z,46.7
2018-07-01T06:08:20.733Z,45.7
2018-07-01T06:13:18.567Z,45.6
2018-07-01T06:18:16.761Z,45.7
2018-07-01T06:23:15.109Z,45.6
2018-07-01T06:28:13.546Z,46
2018-07-01T06:33:12.091Z,46.7
2018-07-01T06:38:09.994Z,46.5
2018-07-01T06:43:12.252Z,46.5
2018-07-01T06:48:08.741Z,47
2018-07-01T06:53:07.054Z,47.3
2018-07-01T06:58:05.704Z,47.3
2018-07-01T07:03:03.590Z,47.4
2018-07-01T07:08:02.076Z,47.3
2018-07-01T07:12:59.575Z,47.6
2018-07-01T07:17:59.478Z,48.2
2018-07-01T07:22:57.372Z,47.9
2018-07-01T07:27:55.060Z,47.6
2018-07-01T07:32:53.470Z,47.9
2018-07-01T07:37:51.453Z,47.9
2018-07-01T07:42:49.361Z,48
2018-07-01T07:47:46.619Z,47.2
2018-07-01T07:52:48.157Z,47.4
2018-07-01T07:57:45.660Z,47.6
2018-07-01T08:02:43.433Z,47.3
2018-07-01T08:07:42.233Z,47.4
2018-07-01T08:12:40.000Z,47.4
2018-07-01T08:17:38.404Z,47.7
2018-07-01T08:22:37.445Z,47.1
2018-07-01T08:27:35.670Z,47.1
2018-07-01T08:32:33.470Z,46.9
2018-07-01T08:37:33.033Z,46.9
2018-07-01T08:42:30.511Z,46.9
2018-07-01T08:47:28.272Z,47.2
2018-07-01T08:52:27.118Z,47.3
2018-07-01T08:57:24.389Z,46.7
2018-07-01T09:02:22.560Z,47.1
2018-07-01T09:07:21.579Z,46.7
2018-07-01T09:12:20.025Z,46.8
2018-07-01T09:17:18.505Z,46.7
2018-07-01T09:22:17.407Z,46.8
2018-07-01T09:27:15.346Z,45.9
2018-07-01T09:32:13.326Z,46.3
2018-07-01T09:37:11.265Z,46.4
2018-07-01T09:42:06.983Z,45.9
2018-07-01T09:47:05.849Z,45.8
2018-07-01T09:52:03.877Z,45.5
2018-07-01T09:57:01.944Z,44.3
2018-07-01T10:02:00.785Z,44.7
2018-07-01T10:07:04.530Z,43.9
2018-07-01T10:12:09.791Z,43
2018-07-01T10:17:06.740Z,43.3
2018-07-01T10:22:05.744Z,42.2
2018-07-01T10:27:03.506Z,42.2
2018-07-01T10:32:01.913Z,41.8
2018-07-01T10:37:00.578Z,41.8
2018-07-01T10:41:59.448Z,41.7
2018-07-01T10:46:57.432Z,41.3
2018-07-01T10:51:55.618Z,41.2
2018-07-01T10:56:53.895Z,41.3
2018-07-01T11:01:51.339Z,41.6
2018-07-01T11:06:50.998Z,41.3
2018-07-01T11:11:48.679Z,40.9
2018-07-01T11:16:46.802Z,41.2
2018-07-01T11:21:45.237Z,40.6
2018-07-01T11:26:42.331Z,40.8
2018-07-01T11:31:39.811Z,40.4
2018-07-01T11:36:43.397Z,39.4
2018-07-01T11:41:40.047Z,39.8
2018-07-01T11:46:38.105Z,39
2018-07-01T11:51:36.630Z,39.1
2018-07-01T11:56:34.728Z,38.2
2018-07-01T12:01:33.717Z,38
2018-07-01T12:06:31.796Z,37.8
2018-07-01T12:11:30.238Z,37.2
2018-07-01T12:16:29.028Z,37
2018-07-01T12:21:26.963Z,36.9
2018-07-01T12:26:25.060Z,36.1
2018-07-01T12:31:23.377Z,36.4
2018-07-01T12:36:21.689Z,36.6
2018-07-01T12:41:19.922Z,36.3
2018-07-01T12:46:18.177Z,35.5
2018-07-01T12:51:15.995Z,35.8
2018-07-01T12:56:14.662Z,34.8
2018-07-01T13:01:12.755Z,35.2
2018-07-01T13:06:11.209Z,35.3
2018-07-01T13:11:09.825Z,34.5
2018-07-01T13:16:08.620Z,34.6
2018-07-01T13:21:07.191Z,34.3
2018-07-01T13:26:05.315Z,34.9
2018-07-01T13:31:02.833Z,35.8
2018-07-01T13:36:01.006Z,36.6
2018-07-01T13:40:58.992Z,37
2018-07-01T13:45:57.589Z,37.2
2018-07-01T13:50:55.959Z,37.8
2018-07-01T13:55:53.976Z,38
2018-07-01T14:00:52.174Z,38.3
2018-07-01T14:05:50.915Z,38.5
2018-07-01T14:10:48.745Z,38.6
2018-07-01T14:15:46.991Z,38.7
2018-07-01T14:20:44.830Z,38.8
2018-07-01T14:25:43.119Z,39.2
2018-07-01T14:30:40.682Z,39
2018-07-01T14:35:38.890Z,39.4
2018-07-01T14:40:37.156Z,39.7
2018-07-01T14:45:35.674Z,39.1
2018-07-01T14:50:33.579Z,39.5
2018-07-01T14:55:32.213Z,39.3
2018-07-01T15:00:30.543Z,39.8
2018-07-01T15:05:28.720Z,40
2018-07-01T15:10:27.090Z,40.1
2018-07-01T15:15:25.509Z,40.2
2018-07-01T15:20:23.549Z,39.7
2018-07-01T15:25:21.767Z,39.8
2018-07-01T15:30:19.902Z,39.7
2018-07-01T15:35:18.831Z,39.7
2018-07-01T15:40:17.345Z,39.4
2018-07-01T15:45:15.665Z,39.2
2018-07-01T15:50:14.248Z,39.6
2018-07-01T15:55:12.351Z,39.9
2018-07-01T16:00:09.593Z,40.1
2018-07-01T16:05:07.866Z,40.1
2018-07-01T16:10:06.030Z,40.2
2018-07-01T16:15:03.989Z,40.3
2018-07-01T16:20:01.666Z,40.4
2018-07-01T16:25:00.038Z,40.8
2018-07-01T16:29:58.389Z,40.5
2018-07-01T16:35:01.078Z,40.7
2018-07-01T16:39:58.357Z,41.1
2018-07-01T16:44:56.879Z,41.3
2018-07-01T16:49:54.658Z,41.6
2018-07-01T16:54:52.929Z,41.9
2018-07-01T16:59:51.448Z,42.2
2018-07-01T17:04:49.439Z,42.5
2018-07-01T17:09:47.412Z,42.6
2018-07-01T17:14:45.812Z,42.5
2018-07-01T17:19:44.324Z,42.8
2018-07-01T17:24:42.422Z,43.1
2018-07-01T17:29:40.851Z,43.4
2018-07-01T17:34:39.101Z,43.6
2018-07-01T17:39:38.011Z,43.9
2018-07-01T17:44:36.127Z,44.2
2018-07-01T17:49:33.780Z,44.4
2018-07-01T17:54:32.107Z,44.5
2018-07-01T17:59:30.795Z,44.4
2018-07-01T18:04:29.317Z,44.5
2018-07-01T18:09:27.720Z,44.8
2018-07-01T18:14:25.511Z,44.9
2018-07-01T18:19:24.001Z,45.1
2018-07-01T18:24:48.931Z,45.4
2018-07-01T18:29:21.620Z,45.4
2018-07-01T18:34:19.137Z,45.5
2018-07-01T18:39:17.022Z,45.8
2018-07-01T18:44:15.692Z,46
2018-07-01T18:49:13.868Z,46.8
2018-07-01T18:54:11.972Z,47.8
2018-07-01T18:59:10.290Z,48.7
2018-07-01T19:04:08.254Z,49.6
2018-07-01T19:09:06.830Z,51
2018-07-01T19:14:04.346Z,52.5
2018-07-01T19:19:01.640Z,53.3
2018-07-01T19:23:59.648Z,54.2
2018-07-01T19:28:56.680Z,53.7
2018-07-01T19:33:54.567Z,54.4
2018-07-01T19:38:52.338Z,56.1
2018-07-01T19:43:50.219Z,56.4
2018-07-01T19:48:47.845Z,56.8
2018-07-01T19:53:45.267Z,57.7
2018-07-01T19:58:42.527Z,57.8
2018-07-01T20:03:39.931Z,58.6
2018-07-01T20:08:37.236Z,58.4
2018-07-01T20:13:34.725Z,58.3
2018-07-01T20:18:31.835Z,58.1
2018-07-01T20:23:29.033Z,59.3
2018-07-01T20:28:26.172Z,59.8
2018-07-01T20:33:23.209Z,60.1
2018-07-01T20:38:20.656Z,60.1
2018-07-01T20:43:17.825Z,60.3
2018-07-01T20:48:15.682Z,60.1
2018-07-01T20:53:12.796Z,60.1
2018-07-01T20:58:10.341Z,60.3
2018-07-01T21:03:07.657Z,60.5
2018-07-01T21:08:05.299Z,60.3
2018-07-01T21:13:02.702Z,61.2
2018-07-01T21:18:00.401Z,62
2018-07-01T21:22:57.302Z,62.1
2018-07-01T21:27:54.846Z,62.4
2018-07-01T21:32:52.781Z,62.5
2018-07-01T21:37:50.906Z,63
2018-07-01T21:42:48.469Z,63.4
2018-07-01T21:47:46.392Z,63.1
2018-07-01T21:52:43.948Z,63.1
2018-07-01T21:57:41.731Z,63.4
2018-07-01T22:02:39.343Z,63.6
2018-07-01T22:07:37.325Z,64.1
2018-07-01T22:12:35.265Z,64.4
2018-07-01T22:17:33.048Z,64
2018-07-01T22:22:30.721Z,63.7
2018-07-01T22:27:29.898Z,64
2018-07-01T22:32:27.835Z,64.7
2018-07-01T22:37:25.351Z,65
2018-07-01T22:42:22.995Z,65
2018-07-01T22:47:20.907Z,66.1
2018-07-01T22:52:18.794Z,64.7
2018-07-01T22:57:16.951Z,64.1
2018-07-01T23:02:15.082Z,64.4
2018-07-01T23:07:12.860Z,64.3
2018-07-01T23:12:10.645Z,64.4
2018-07-01T23:17:08.477Z,65.2
2018-07-01T23:22:06.469Z,65.1
2018-07-01T23:27:04.582Z,65.8
2018-07-01T23:32:02.451Z,65.6
2018-07-01T23:37:00.494Z,65.4
2018-07-01T23:41:58.576Z,65.3
2018-07-01T23:46:56.347Z,66.4
2018-07-01T23:51:54.333Z,66.2
2018-07-01T23:56:51.469Z,66.2
